Magazine, Arkansas
Current Conditions -  °F | °C
As of 8:53 AM on Friday 31 Oct 2014 (Local Time) from KFSM Reporting Station
Clear Clear  
Wind Chill: 53°   Ceiling: Unl
Heat Index: 53°   Visibility: 10mi
Dew Point: 41°   Wind: 12mph
Humidity: 64%   Direction: 350°N
Pressure: 30.28"   Gusts: NA
Location:  35.15°N, 93.81°W
Report Text: KFSM 311353Z 35010KT 10SM CLR 12/05 A3028 RMK AO2 SLP253 T01170050
Loading
Personal Weather Stations






























Interactive Weather Map
Tropical Storm Tracking
New forecast layout! Learn more

10-Day Weather Forecast

Advertisements
Track Severe Weather on mobile